Time;durP1;ratioP1;P1;durP2;ratioP2;P2;SDS_P1;SDS_P2;PMS_P1;PMS_P2;Temp;Humidity;BMP_temperature;BMP_pressure;BME280_temperature;BME280_humidity;BME280_pressure;Samples;Min_cycle;Max_cycle;Signal;HPM_P1;HPM_P2
2024/03/13 00:00:12;;;;;;;10.43;4.10;;;7.40;99.90;;;;;;5017913;28;20120;-71
2024/03/13 00:02:38;;;;;;;12.00;4.13;;;7.50;99.90;;;;;;4996480;28;20044;-71
2024/03/13 00:05:06;;;;;;;8.80;4.93;;;7.40;99.90;;;;;;4999906;28;20029;-71
2024/03/13 00:07:32;;;;;;;8.68;4.63;;;7.40;99.90;;;;;;4998966;28;20026;-71
2024/03/13 00:10:00;;;;;;;9.63;4.50;;;7.40;99.90;;;;;;4999107;28;20387;-72
2024/03/13 00:12:28;;;;;;;2.33;1.73;;;7.40;99.90;;;;;;4994603;28;20076;-71
2024/03/13 00:14:53;;;;;;;6.53;3.00;;;7.40;99.90;;;;;;4999936;28;20049;-71
2024/03/13 00:17:20;;;;;;;7.05;2.97;;;7.40;99.90;;;;;;5003451;28;20034;-71
2024/03/13 00:19:56;;;;;;;7.18;3.15;;;7.40;99.90;;;;;;5015782;28;20575;-71
2024/03/13 00:22:23;;;;;;;7.25;2.38;;;7.40;99.90;;;;;;5002257;28;20087;-71
2024/03/13 00:24:54;;;;;;;6.18;2.63;;;7.40;99.90;;;;;;4997164;28;20446;-71
2024/03/13 00:27:20;;;;;;;4.60;2.40;;;7.30;99.90;;;;;;5013837;28;20486;-71
2024/03/13 00:29:50;;;;;;;3.40;1.42;;;7.30;99.90;;;;;;4998566;28;20368;-71
2024/03/13 00:32:18;;;;;;;9.52;2.45;;;7.30;99.90;;;;;;5001733;28;20395;-71
2024/03/13 00:34:47;;;;;;;4.38;2.40;;;7.30;99.90;;;;;;5001207;28;20034;-71
2024/03/13 00:37:14;;;;;;;2.30;1.70;;;7.30;99.90;;;;;;5001804;28;20038;-71
2024/03/13 00:39:44;;;;;;;3.35;1.63;;;7.20;99.90;;;;;;5002201;28;20037;-71
2024/03/13 00:42:13;;;;;;;4.68;2.03;;;7.20;99.90;;;;;;5011008;28;20030;-70
2024/03/13 00:44:43;;;;;;;3.50;1.70;;;7.30;99.90;;;;;;5002148;28;20014;-71
2024/03/13 00:47:11;;;;;;;2.47;1.55;;;7.20;99.90;;;;;;5013218;28;20034;-70
2024/03/13 00:49:37;;;;;;;3.78;1.67;;;7.20;99.90;;;;;;5001794;28;20030;-71
2024/03/13 00:52:04;;;;;;;2.00;1.13;;;7.20;99.90;;;;;;5011986;28;20035;-71
2024/03/13 00:54:30;;;;;;;5.55;1.58;;;7.20;99.90;;;;;;4996265;28;20123;-71
2024/03/13 00:56:57;;;;;;;4.13;1.33;;;7.20;99.90;;;;;;4998730;28;20775;-71
2024/03/13 00:59:26;;;;;;;1.45;1.10;;;7.20;99.90;;;;;;5001774;28;20050;-72
2024/03/13 01:01:55;;;;;;;1.17;1.08;;;7.20;99.90;;;;;;5012505;28;20037;-72
2024/03/13 01:04:25;;;;;;;3.58;1.60;;;7.10;99.90;;;;;;4996804;28;20113;-71
2024/03/13 01:06:51;;;;;;;2.80;1.35;;;7.20;99.90;;;;;;4983673;28;20030;-71
2024/03/13 01:09:23;;;;;;;9.15;1.25;;;7.10;99.90;;;;;;5002237;28;20041;-71
2024/03/13 01:11:50;;;;;;;1.80;0.68;;;7.20;99.90;;;;;;4998851;28;20022;-71
2024/03/13 01:14:19;;;;;;;2.08;0.98;;;7.10;99.90;;;;;;5000374;28;20069;-71
2024/03/13 01:16:51;;;;;;;3.95;1.85;;;7.20;99.90;;;;;;5011282;28;20554;-72
2024/03/13 01:19:19;;;;;;;1.60;0.80;;;7.20;99.90;;;;;;4994442;28;20113;-71
2024/03/13 01:22:05;;;;;;;2.25;1.13;;;7.20;99.90;;;;;;4994594;28;20046;-70
2024/03/13 01:24:33;;;;;;;1.02;0.80;;;7.20;99.90;;;;;;4998179;28;20029;-71
2024/03/13 01:27:00;;;;;;;2.63;1.48;;;7.20;99.90;;;;;;5012901;28;20030;-71
2024/03/13 01:29:26;;;;;;;2.60;1.23;;;7.20;99.90;;;;;;5001117;28;20031;-71
2024/03/13 01:31:51;;;;;;;3.03;1.25;;;7.20;99.90;;;;;;4995645;23;20048;-73
2024/03/13 01:34:19;;;;;;;4.65;1.08;;;7.20;99.90;;;;;;4961801;28;20027;-73
2024/03/13 01:39:29;;;;;;;1.48;0.98;;;7.30;99.90;;;;;;4941359;29;20035;-74
2024/03/13 01:56:24;;;;;;;1.50;0.70;;;7.30;99.90;;;;;;4945073;29;20126;-74
2024/03/13 02:04:39;;;;;;;1.98;0.88;;;7.30;99.90;;;;;;4951489;28;20023;-73
2024/03/13 02:07:05;;;;;;;3.25;1.00;;;7.40;99.90;;;;;;4933209;29;20485;-73
2024/03/13 02:09:31;;;;;;;2.75;1.13;;;7.40;99.90;;;;;;4960802;28;20042;-73
2024/03/13 02:11:57;;;;;;;1.42;0.88;;;7.40;99.90;;;;;;4941711;29;20036;-73
2024/03/13 02:14:22;;;;;;;2.75;1.25;;;7.40;99.90;;;;;;4965034;28;20035;-73
2024/03/13 02:16:52;;;;;;;2.85;1.38;;;7.40;99.90;;;;;;4942321;29;20034;-73
2024/03/13 02:19:18;;;;;;;2.15;1.27;;;7.40;99.90;;;;;;4964543;28;20031;-73
2024/03/13 02:21:47;;;;;;;4.03;1.45;;;7.40;99.90;;;;;;4943005;28;20027;-73
2024/03/13 02:24:12;;;;;;;1.80;1.15;;;7.40;99.90;;;;;;4948443;28;20038;-73
2024/03/13 02:26:41;;;;;;;3.97;1.75;;;7.40;99.90;;;;;;4945133;28;20031;-73
2024/03/13 02:29:08;;;;;;;1.55;0.80;;;7.40;99.90;;;;;;4949611;29;20024;-71
2024/03/13 02:31:34;;;;;;;2.10;1.30;;;7.40;99.90;;;;;;4965132;28;20025;-72
2024/03/13 02:34:00;;;;;;;1.83;1.13;;;7.40;99.90;;;;;;4969383;28;20023;-72
2024/03/13 02:36:26;;;;;;;5.72;1.75;;;7.40;99.90;;;;;;4967567;28;20031;-72
2024/03/13 02:38:52;;;;;;;4.30;1.38;;;7.40;99.90;;;;;;4949786;29;20027;-72
2024/03/13 02:41:17;;;;;;;1.33;0.98;;;7.40;99.90;;;;;;4953207;28;20039;-72
2024/03/13 02:43:43;;;;;;;2.75;1.55;;;7.40;99.90;;;;;;4952183;28;20380;-73
2024/03/13 02:46:09;;;;;;;5.35;1.58;;;7.40;99.90;;;;;;4968236;28;20035;-73
2024/03/13 02:48:36;;;;;;;2.95;1.40;;;7.40;99.90;;;;;;4969529;28;20971;-72
2024/03/13 02:51:02;;;;;;;2.88;1.23;;;7.40;99.90;;;;;;4967658;28;20108;-73
2024/03/13 02:53:28;;;;;;;4.82;2.17;;;7.40;99.90;;;;;;4969149;28;20826;-73
2024/03/13 02:55:53;;;;;;;2.10;1.52;;;7.40;99.90;;;;;;4967493;28;20031;-73
2024/03/13 02:58:21;;;;;;;1.73;1.20;;;7.40;99.90;;;;;;4953554;28;20038;-73
2024/03/13 03:00:47;;;;;;;1.50;1.05;;;7.40;99.90;;;;;;4947579;28;20020;-73
2024/03/13 03:03:13;;;;;;;4.50;1.65;;;7.40;99.90;;;;;;4953257;28;20400;-73
2024/03/13 03:05:39;;;;;;;2.05;1.30;;;7.40;99.90;;;;;;4949783;28;20436;-73
2024/03/13 03:08:06;;;;;;;4.40;1.80;;;7.40;99.90;;;;;;4949848;29;20082;-73
2024/03/13 03:10:32;;;;;;;2.55;1.83;;;7.40;99.90;;;;;;4968060;28;20113;-73
2024/03/13 03:12:58;;;;;;;5.75;2.00;;;7.40;99.90;;;;;;4969101;28;20619;-73
2024/03/13 03:15:28;;;;;;;5.32;2.10;;;7.40;99.90;;;;;;4964291;28;20102;-73
2024/03/13 03:17:54;;;;;;;2.63;1.60;;;7.40;99.90;;;;;;4953745;28;20141;-73
2024/03/13 03:20:20;;;;;;;7.35;1.30;;;7.40;99.90;;;;;;4950419;29;20198;-73
2024/03/13 03:22:46;;;;;;;6.55;1.50;;;7.40;99.90;;;;;;4962958;28;20042;-73
2024/03/13 03:25:12;;;;;;;4.57;1.73;;;7.40;99.90;;;;;;4951158;28;20031;-72
2024/03/13 03:27:38;;;;;;;2.95;1.55;;;7.40;99.90;;;;;;4950561;29;20143;-73
2024/03/13 03:30:06;;;;;;;2.15;1.48;;;7.50;99.90;;;;;;4957459;28;20039;-73
2024/03/13 03:32:31;;;;;;;3.15;1.90;;;7.40;99.90;;;;;;4952828;28;20038;-73
2024/03/13 03:34:57;;;;;;;2.55;1.75;;;7.40;99.90;;;;;;4965461;28;20035;-73
2024/03/13 03:37:23;;;;;;;4.78;2.25;;;7.40;99.90;;;;;;4968097;28;20408;-73
2024/03/13 03:39:50;;;;;;;3.55;1.83;;;7.40;99.90;;;;;;4949993;28;20028;-73
2024/03/13 03:42:16;;;;;;;3.47;1.98;;;7.50;99.90;;;;;;4951697;28;20402;-73
2024/03/13 03:44:42;;;;;;;2.80;1.77;;;7.40;99.90;;;;;;4950997;28;20077;-73
2024/03/13 03:47:10;;;;;;;2.28;1.65;;;7.50;99.90;;;;;;4986988;28;20038;-73
2024/03/13 03:49:36;;;;;;;4.40;2.13;;;7.50;99.90;;;;;;4984485;28;20388;-73
2024/03/13 03:52:02;;;;;;;4.63;1.83;;;7.50;99.90;;;;;;4986599;28;20117;-73
2024/03/13 03:54:29;;;;;;;3.63;2.72;;;7.50;99.90;;;;;;4988246;28;20031;-73
2024/03/13 03:56:54;;;;;;;4.45;2.28;;;7.50;99.90;;;;;;4985999;28;20045;-74
2024/03/13 03:59:20;;;;;;;4.95;2.05;;;7.50;99.90;;;;;;4989264;28;20030;-73
2024/03/13 04:01:46;;;;;;;3.35;2.17;;;7.50;99.90;;;;;;4985959;28;20051;-73
2024/03/13 04:04:13;;;;;;;3.42;1.75;;;7.50;99.90;;;;;;4989670;28;20030;-74
2024/03/13 04:06:41;;;;;;;3.35;1.83;;;7.50;99.90;;;;;;4985676;28;20466;-73
2024/03/13 04:09:14;;;;;;;4.00;1.70;;;7.60;99.90;;;;;;4989066;28;20038;-74
2024/03/13 04:11:42;;;;;;;3.88;1.77;;;7.50;99.90;;;;;;4965976;28;20079;-74
2024/03/13 04:14:09;;;;;;;2.20;1.20;;;7.60;99.90;;;;;;4988918;28;20042;-74
2024/03/13 04:16:35;;;;;;;4.75;2.75;;;7.60;99.90;;;;;;4981066;28;20042;-73
2024/03/13 04:19:01;;;;;;;5.05;2.17;;;7.60;99.90;;;;;;4953792;28;20365;-74
2024/03/13 04:21:27;;;;;;;2.83;1.65;;;7.60;99.90;;;;;;4963841;28;20094;-72
2024/03/13 04:23:54;;;;;;;3.95;2.67;;;7.60;99.90;;;;;;4952489;28;20357;-73
2024/03/13 04:26:20;;;;;;;5.45;2.17;;;7.60;99.90;;;;;;4963452;28;20023;-73
2024/03/13 04:28:46;;;;;;;5.50;2.90;;;7.60;99.90;;;;;;4967191;28;20035;-74
2024/03/13 04:31:15;;;;;;;5.25;2.10;;;7.60;99.90;;;;;;4949195;28;20137;-74
2024/03/13 04:33:41;;;;;;;4.72;2.17;;;7.70;99.90;;;;;;4966711;28;20042;-74
2024/03/13 04:36:07;;;;;;;3.55;1.98;;;7.70;99.90;;;;;;4958581;28;20035;-75
2024/03/13 04:38:33;;;;;;;4.95;1.90;;;7.70;99.90;;;;;;4952710;28;20020;-73
2024/03/13 04:41:02;;;;;;;5.97;2.88;;;7.70;99.90;;;;;;4947790;28;20031;-74
2024/03/13 04:43:28;;;;;;;2.55;1.65;;;7.70;99.90;;;;;;4951979;28;20042;-73
2024/03/13 04:45:56;;;;;;;3.55;1.98;;;7.70;99.90;;;;;;4948723;29;20114;-73
2024/03/13 04:48:22;;;;;;;5.72;2.70;;;7.70;99.90;;;;;;4966966;28;20055;-73
2024/03/13 04:50:48;;;;;;;2.92;1.85;;;7.70;99.90;;;;;;4948319;28;20059;-74
2024/03/13 04:53:14;;;;;;;7.20;2.45;;;7.70;99.90;;;;;;4949636;28;20412;-73
2024/03/13 04:55:40;;;;;;;3.38;1.85;;;7.70;99.90;;;;;;4947833;28;20492;-73
2024/03/13 04:58:06;;;;;;;3.50;2.60;;;7.70;99.90;;;;;;4952446;28;20042;-73
2024/03/13 05:00:32;;;;;;;4.82;2.28;;;7.70;99.90;;;;;;4925755;28;20138;-73
2024/03/13 05:02:58;;;;;;;6.80;3.00;;;7.60;99.90;;;;;;4922603;29;20201;-73
2024/03/13 05:05:23;;;;;;;4.25;2.42;;;7.70;99.90;;;;;;4949050;28;20766;-73
2024/03/13 05:07:49;;;;;;;3.85;2.22;;;7.70;99.90;;;;;;4966483;28;20035;-73
2024/03/13 05:10:16;;;;;;;3.88;2.55;;;7.70;99.90;;;;;;4936722;29;20086;-74
2024/03/13 05:12:43;;;;;;;4.82;2.50;;;7.70;99.90;;;;;;4965980;28;20027;-74
2024/03/13 05:15:09;;;;;;;6.20;3.55;;;7.70;99.90;;;;;;4950350;28;20496;-73
2024/03/13 05:17:36;;;;;;;6.07;2.78;;;7.70;99.90;;;;;;4950920;28;20039;-74
2024/03/13 05:20:11;;;;;;;7.15;2.97;;;7.70;99.90;;;;;;4964314;28;20389;-74
2024/03/13 05:22:39;;;;;;;6.25;2.50;;;7.70;99.90;;;;;;4944409;28;20032;-74
2024/03/13 05:25:08;;;;;;;8.45;4.20;;;7.70;99.90;;;;;;4955382;28;20350;-73
2024/03/13 05:27:34;;;;;;;5.18;2.75;;;7.70;99.90;;;;;;4967368;28;20106;-70
2024/03/13 05:30:00;;;;;;;6.70;3.58;;;7.70;99.90;;;;;;4955627;28;20138;-71
2024/03/13 05:32:26;;;;;;;9.93;3.75;;;7.70;99.90;;;;;;4951935;28;20089;-71
2024/03/13 05:34:51;;;;;;;6.18;2.78;;;7.70;99.90;;;;;;4952957;29;20518;-70
2024/03/13 05:37:17;;;;;;;6.18;3.35;;;7.70;99.90;;;;;;4951812;29;20059;-71
2024/03/13 05:39:43;;;;;;;5.45;3.55;;;7.70;99.90;;;;;;4967092;28;20065;-70
2024/03/13 05:42:10;;;;;;;9.35;4.45;;;7.80;99.90;;;;;;4951691;28;20392;-71
2024/03/13 05:44:38;;;;;;;10.02;3.25;;;7.80;99.90;;;;;;4951121;29;20023;-71
2024/03/13 05:47:04;;;;;;;13.82;3.92;;;7.80;99.90;;;;;;4964795;28;20024;-72
2024/03/13 05:49:30;;;;;;;5.07;2.90;;;7.80;99.90;;;;;;4947046;29;20108;-71
2024/03/13 05:51:56;;;;;;;7.15;3.70;;;7.80;99.90;;;;;;4950993;29;20718;-71
2024/03/13 05:54:23;;;;;;;6.40;4.30;;;7.90;99.90;;;;;;4938706;28;20500;-70
2024/03/13 05:56:50;;;;;;;10.43;3.85;;;7.90;99.90;;;;;;4936947;29;20046;-71
2024/03/13 05:59:18;;;;;;;6.80;4.07;;;7.90;99.90;;;;;;4935615;29;20505;-71
2024/03/13 06:01:44;;;;;;;6.90;3.38;;;7.90;99.90;;;;;;4935626;29;20083;-71
2024/03/13 06:04:09;;;;;;;8.60;3.72;;;7.80;99.90;;;;;;4934903;29;20106;-71
2024/03/13 06:06:37;;;;;;;7.70;4.65;;;7.90;99.90;;;;;;4936418;29;20389;-71
2024/03/13 06:09:06;;;;;;;7.65;3.25;;;7.90;99.90;;;;;;4935478;29;20708;-71
2024/03/13 06:11:33;;;;;;;7.00;3.70;;;7.90;99.90;;;;;;4936367;29;20044;-72
2024/03/13 06:14:00;;;;;;;8.00;4.05;;;7.90;99.90;;;;;;4935289;29;20035;-72
2024/03/13 06:16:25;;;;;;;9.90;4.38;;;7.80;99.90;;;;;;4932231;29;20047;-72
2024/03/13 06:18:51;;;;;;;12.73;4.95;;;7.90;99.90;;;;;;4922702;29;20042;-69
2024/03/13 06:21:19;;;;;;;7.82;3.53;;;7.90;99.90;;;;;;4924007;29;20040;-70
2024/03/13 06:23:53;;;;;;;11.15;3.30;;;7.90;99.90;;;;;;4924344;29;20025;-70
2024/03/13 06:26:20;;;;;;;7.43;3.92;;;7.90;99.90;;;;;;4932729;29;20032;-70
2024/03/13 06:31:33;;;;;;;8.40;4.15;;;7.90;99.90;;;;;;4931820;29;20496;-70
2024/03/13 06:33:59;;;;;;;8.43;3.63;;;7.90;99.90;;;;;;4933883;29;20551;-70
2024/03/13 06:36:25;;;;;;;7.03;3.53;;;7.90;99.90;;;;;;4933333;29;20122;-70
2024/03/13 06:38:50;;;;;;;7.30;3.35;;;7.90;99.90;;;;;;4934765;29;20114;-70
2024/03/13 06:41:16;;;;;;;7.43;3.97;;;7.90;99.90;;;;;;4931074;29;20024;-70
2024/03/13 06:43:42;;;;;;;11.73;5.35;;;7.90;99.90;;;;;;4945957;28;20032;-71
2024/03/13 06:46:08;;;;;;;6.25;3.38;;;8.00;99.90;;;;;;4923072;29;20560;-72
2024/03/13 06:48:34;;;;;;;6.47;3.42;;;7.90;99.90;;;;;;4929108;29;20036;-72
2024/03/13 06:51:08;;;;;;;8.73;3.85;;;8.00;99.90;;;;;;4931384;29;20051;-71
2024/03/13 06:53:34;;;;;;;13.02;3.40;;;8.00;99.90;;;;;;4933255;29;20406;-73
2024/03/13 06:56:00;;;;;;;5.97;4.05;;;8.00;99.90;;;;;;4947983;29;20055;-71
2024/03/13 06:58:27;;;;;;;6.78;3.65;;;8.10;99.90;;;;;;4932372;29;20408;-71
2024/03/13 07:00:53;;;;;;;5.95;3.20;;;8.10;99.90;;;;;;4933067;29;20027;-71
2024/03/13 07:03:19;;;;;;;9.32;4.10;;;8.10;99.90;;;;;;4934451;29;20031;-71
2024/03/13 07:05:45;;;;;;;6.20;3.38;;;8.20;99.90;;;;;;4933558;29;20513;-71
2024/03/13 07:08:13;;;;;;;8.55;3.70;;;8.20;99.90;;;;;;4935267;28;20061;-71
2024/03/13 07:10:39;;;;;;;11.60;4.47;;;8.30;99.90;;;;;;4922990;29;20043;-71
2024/03/13 07:13:06;;;;;;;7.43;3.92;;;8.30;99.90;;;;;;4927715;29;20471;-71
2024/03/13 07:15:34;;;;;;;9.77;4.20;;;8.40;99.90;;;;;;4934954;29;20382;-71
2024/03/13 07:18:01;;;;;;;10.68;4.22;;;8.40;99.90;;;;;;4928892;29;20028;-71
2024/03/13 07:20:26;;;;;;;13.77;4.32;;;8.40;99.90;;;;;;4935715;29;20082;-72
2024/03/13 07:22:52;;;;;;;8.07;3.20;;;8.40;99.90;;;;;;4943050;28;20441;-71
2024/03/13 07:25:18;;;;;;;6.32;3.20;;;8.40;99.90;;;;;;4935425;29;20144;-71
2024/03/13 07:27:43;;;;;;;6.85;2.83;;;8.40;99.90;;;;;;4926585;29;20043;-71
2024/03/13 07:30:09;;;;;;;9.13;4.55;;;8.40;99.90;;;;;;4935616;29;20544;-71
2024/03/13 07:32:35;;;;;;;6.45;2.85;;;8.40;99.90;;;;;;4929413;28;20082;-71
2024/03/13 07:35:03;;;;;;;7.60;3.38;;;8.30;99.90;;;;;;4947095;28;20027;-72
2024/03/13 07:37:29;;;;;;;5.15;2.83;;;8.30;99.90;;;;;;4933763;29;20096;-71
2024/03/13 07:39:57;;;;;;;10.13;3.63;;;8.30;99.90;;;;;;4942345;29;20504;-71
2024/03/13 07:42:25;;;;;;;5.30;3.20;;;8.40;99.90;;;;;;4931407;29;20333;-72
2024/03/13 07:44:54;;;;;;;6.95;3.63;;;8.40;99.90;;;;;;4931931;29;20048;-71
2024/03/13 07:47:20;;;;;;;5.03;2.38;;;8.40;99.90;;;;;;4935400;29;20028;-71
2024/03/13 07:49:47;;;;;;;6.90;3.45;;;8.40;99.90;;;;;;4932107;29;20050;-71
2024/03/13 07:52:14;;;;;;;3.33;2.17;;;8.40;99.90;;;;;;4933449;29;20115;-72
2024/03/13 07:54:40;;;;;;;7.78;4.05;;;8.40;99.90;;;;;;4931859;29;20370;-71
2024/03/13 07:57:08;;;;;;;7.50;2.90;;;8.40;99.90;;;;;;4934974;29;20028;-71
2024/03/13 07:59:34;;;;;;;5.50;3.35;;;8.40;99.90;;;;;;4925622;29;20036;-57
2024/03/13 08:02:00;;;;;;;5.95;2.60;;;8.60;99.90;;;;;;4920860;29;20035;-56
2024/03/13 08:04:26;;;;;;;8.20;3.38;;;8.60;99.90;;;;;;4923561;28;20095;-55
2024/03/13 08:06:57;;;;;;;7.95;4.03;;;8.60;99.90;;;;;;4949361;29;20469;-53
2024/03/13 08:09:28;;;;;;;;;;;8.60;99.90;;;;;;4934523;29;20114;-60
2024/03/13 08:11:54;;;;;;;4.15;2.50;;;8.60;99.90;;;;;;4934849;29;19911;-74
2024/03/13 08:14:22;;;;;;;6.15;3.13;;;8.70;99.90;;;;;;4925222;29;20051;-76
2024/03/13 08:16:48;;;;;;;6.97;3.17;;;8.70;99.90;;;;;;4925860;28;20058;-74
2024/03/13 08:19:14;;;;;;;5.00;3.05;;;8.80;99.90;;;;;;4930717;29;20476;-76
2024/03/13 08:21:39;;;;;;;5.53;3.42;;;8.80;99.90;;;;;;4932977;29;20114;-75
2024/03/13 08:24:07;;;;;;;9.05;4.20;;;8.80;99.90;;;;;;4932802;29;20039;-77
2024/03/13 08:26:32;;;;;;;7.53;4.00;;;8.80;99.90;;;;;;4949523;29;20028;-77
2024/03/13 08:28:58;;;;;;;7.45;2.97;;;8.90;99.90;;;;;;4931544;29;20042;-76
2024/03/13 08:31:25;;;;;;;7.90;3.15;;;8.90;99.90;;;;;;4933547;29;20039;-76
2024/03/13 08:33:53;;;;;;;8.82;3.65;;;9.00;99.90;;;;;;4946213;28;20031;-75
2024/03/13 08:36:19;;;;;;;7.78;4.88;;;9.00;99.90;;;;;;4934223;29;20031;-75
2024/03/13 08:38:44;;;;;;;6.88;3.50;;;9.00;99.90;;;;;;4930380;29;20031;-76
2024/03/13 08:41:14;;;;;;;6.50;3.42;;;9.00;99.90;;;;;;4934477;29;20032;-75
2024/03/13 08:43:40;;;;;;;6.78;3.75;;;9.00;99.90;;;;;;4931801;29;20023;-75
2024/03/13 08:46:05;;;;;;;8.93;3.67;;;9.00;99.90;;;;;;4926859;29;20078;-75
2024/03/13 08:48:31;;;;;;;6.53;4.10;;;9.00;99.90;;;;;;4933912;29;20031;-75
2024/03/13 08:50:59;;;;;;;8.52;4.30;;;9.10;99.90;;;;;;4927219;29;20047;-75
2024/03/13 08:53:25;;;;;;;8.85;2.95;;;9.10;99.90;;;;;;4931850;29;20027;-76
2024/03/13 08:55:51;;;;;;;14.27;4.30;;;9.20;99.90;;;;;;4928064;29;20493;-75
2024/03/13 08:58:16;;;;;;;12.55;4.28;;;9.20;99.90;;;;;;4934173;29;20038;-75
2024/03/13 09:00:43;;;;;;;5.63;4.18;;;9.20;99.90;;;;;;4932574;29;20106;-75
2024/03/13 09:03:14;;;;;;;5.35;3.10;;;9.20;99.90;;;;;;4932861;29;20034;-75
2024/03/13 09:05:40;;;;;;;8.00;3.55;;;9.30;99.90;;;;;;4922430;29;20032;-74
2024/03/13 09:08:07;;;;;;;5.82;3.17;;;9.40;99.90;;;;;;4931561;28;20047;-75
2024/03/13 09:10:33;;;;;;;7.13;3.50;;;9.30;99.90;;;;;;4927192;29;20032;-75
2024/03/13 09:12:58;;;;;;;9.25;4.57;;;9.40;99.90;;;;;;4949419;28;20028;-75
2024/03/13 09:15:24;;;;;;;6.95;3.97;;;9.40;99.90;;;;;;4930411;29;20405;-75
2024/03/13 09:17:51;;;;;;;6.80;3.33;;;9.50;99.90;;;;;;4933428;29;20071;-74
2024/03/13 09:20:18;;;;;;;8.25;3.70;;;9.50;99.90;;;;;;4945621;28;20029;-76
2024/03/13 09:22:44;;;;;;;12.07;4.32;;;9.50;99.90;;;;;;4947770;28;20028;-75
2024/03/13 09:25:12;;;;;;;6.68;3.67;;;9.40;99.90;;;;;;4931002;29;20028;-75
2024/03/13 09:27:39;;;;;;;8.27;3.03;;;9.50;99.90;;;;;;4933516;29;20038;-73
2024/03/13 09:30:09;;;;;;;6.25;2.88;;;9.60;99.90;;;;;;4932501;29;20047;-75
2024/03/13 09:32:35;;;;;;;7.35;2.75;;;9.50;99.90;;;;;;4933225;29;20031;-76
2024/03/13 09:35:09;;;;;;;6.28;3.50;;;9.50;99.90;;;;;;4923520;29;20122;-75
2024/03/13 09:37:37;;;;;;;5.20;3.00;;;9.60;99.90;;;;;;4933183;29;20664;-75
2024/03/13 09:40:04;;;;;;;5.03;2.70;;;9.70;99.90;;;;;;4946182;28;20023;-70
2024/03/13 09:42:36;;;;;;;3.95;2.20;;;9.70;99.90;;;;;;4933224;29;20036;-71
2024/03/13 09:45:03;;;;;;;4.57;2.53;;;9.70;99.90;;;;;;4931605;29;20521;-70
2024/03/13 09:47:31;;;;;;;4.30;2.10;;;9.80;99.90;;;;;;4932703;29;20063;-71
2024/03/13 09:49:58;;;;;;;3.42;2.20;;;9.80;99.90;;;;;;4928591;29;20042;-71
2024/03/13 09:52:28;;;;;;;5.97;2.80;;;9.80;99.90;;;;;;4949356;29;20031;-71
2024/03/13 09:54:58;;;;;;;5.57;2.90;;;9.90;99.90;;;;;;4933057;29;20078;-71
2024/03/13 09:57:27;;;;;;;7.05;2.75;;;9.90;99.90;;;;;;4938534;29;20302;-71
2024/03/13 09:59:56;;;;;;;6.60;3.38;;;9.90;99.90;;;;;;4947208;28;20043;-71
2024/03/13 10:02:27;;;;;;;3.75;2.60;;;10.00;99.90;;;;;;4931916;29;20452;-69
2024/03/13 10:04:53;;;;;;;5.65;2.97;;;10.00;99.90;;;;;;4930760;29;20035;-71
2024/03/13 10:07:21;;;;;;;4.55;2.53;;;10.20;99.90;;;;;;4933570;29;20028;-71
2024/03/13 10:09:47;;;;;;;10.20;2.75;;;10.20;99.90;;;;;;4934361;29;20487;-70
2024/03/13 10:12:22;;;;;;;4.63;2.85;;;10.10;99.90;;;;;;4949360;29;20099;-70
2024/03/13 10:14:52;;;;;;;5.45;2.72;;;10.10;99.90;;;;;;4950070;28;20484;-71
2024/03/13 10:17:26;;;;;;;4.30;2.22;;;10.20;99.90;;;;;;4931704;29;20159;-70
2024/03/13 10:19:55;;;;;;;3.78;2.50;;;10.30;99.90;;;;;;4933686;29;20023;-71
2024/03/13 10:22:21;;;;;;;5.70;3.08;;;10.40;99.90;;;;;;4935132;29;20031;-71
2024/03/13 10:24:51;;;;;;;6.40;3.25;;;10.50;99.90;;;;;;4933683;29;20449;-71
2024/03/13 10:27:21;;;;;;;3.95;2.15;;;10.50;99.90;;;;;;4929987;29;20507;-70
2024/03/13 10:29:48;;;;;;;4.75;2.92;;;10.60;99.90;;;;;;4934033;29;20038;-70
2024/03/13 10:32:17;;;;;;;6.15;3.22;;;10.60;99.90;;;;;;4935792;29;20370;-70
2024/03/13 10:34:44;;;;;;;5.70;2.42;;;10.50;99.90;;;;;;4935308;29;20488;-70
2024/03/13 10:37:13;;;;;;;7.40;3.35;;;10.40;99.90;;;;;;4936968;29;20060;-71
2024/03/13 10:39:41;;;;;;;4.60;2.75;;;10.40;99.90;;;;;;4951526;28;20385;-70
2024/03/13 10:42:08;;;;;;;5.78;3.25;;;10.60;99.90;;;;;;4935561;29;20476;-70
2024/03/13 10:44:35;;;;;;;10.55;3.13;;;10.60;99.90;;;;;;4935622;29;20036;-69
2024/03/13 10:47:00;;;;;;;3.60;1.98;;;10.40;99.90;;;;;;4943509;28;20362;-70
2024/03/13 10:49:28;;;;;;;5.18;2.97;;;10.50;99.90;;;;;;4943371;29;20202;-70
2024/03/13 10:51:58;;;;;;;5.95;3.88;;;10.40;99.90;;;;;;4944872;28;20031;-70
2024/03/13 10:54:25;;;;;;;11.73;3.60;;;10.50;99.90;;;;;;4934063;29;20110;-70
2024/03/13 10:56:53;;;;;;;7.85;3.20;;;10.50;99.90;;;;;;4944832;28;20043;-70
2024/03/13 10:59:19;;;;;;;4.07;2.33;;;10.60;99.90;;;;;;4934124;29;20036;-70
2024/03/13 11:01:49;;;;;;;6.68;2.85;;;10.60;99.90;;;;;;4944214;28;20079;-70
2024/03/13 11:04:15;;;;;;;5.97;3.42;;;10.70;99.90;;;;;;4933641;29;20488;-70
2024/03/13 11:06:41;;;;;;;9.05;3.50;;;10.80;99.90;;;;;;4948720;28;20114;-71
2024/03/13 11:09:43;;;;;;;4.22;2.88;;;10.70;99.90;;;;;;4917849;29;20127;-70
2024/03/13 11:12:03;;;;;;;6.45;2.75;;;10.80;99.90;;;;;;4944798;28;20036;-70
2024/03/13 11:14:30;;;;;;;6.13;3.30;;;10.90;99.90;;;;;;4933347;29;20027;-70
2024/03/13 11:17:03;;;;;;;5.75;3.38;;;10.80;99.90;;;;;;4943112;28;20031;-70
2024/03/13 11:19:33;;;;;;;5.32;2.97;;;10.80;99.90;;;;;;4948134;28;20039;-70
2024/03/13 11:22:00;;;;;;;5.95;3.17;;;10.90;99.90;;;;;;4943475;28;20024;-71
2024/03/13 11:24:31;;;;;;;6.20;2.85;;;10.90;99.90;;;;;;4934608;29;20050;-70
2024/03/13 11:27:12;;;;;;;7.10;2.73;;;10.80;99.90;;;;;;4942398;28;20042;-70
2024/03/13 11:29:43;;;;;;;7.53;3.67;;;10.80;99.90;;;;;;4936111;28;20310;-70
2024/03/13 11:32:12;;;;;;;8.02;3.50;;;10.90;99.90;;;;;;4928072;29;20036;-71
2024/03/13 11:34:42;;;;;;;7.55;3.10;;;10.90;99.90;;;;;;4935659;29;20024;-71
2024/03/13 11:37:11;;;;;;;4.47;2.55;;;11.00;99.90;;;;;;4933550;29;20150;-71
2024/03/13 11:39:42;;;;;;;6.05;3.05;;;10.90;99.90;;;;;;4933146;29;20524;-71
2024/03/13 11:42:12;;;;;;;4.80;2.60;;;11.00;99.90;;;;;;4947753;28;20044;-69
2024/03/13 11:44:42;;;;;;;5.35;3.13;;;10.90;99.90;;;;;;4947836;29;20040;-71
2024/03/13 11:47:11;;;;;;;5.13;3.20;;;11.00;99.90;;;;;;4948000;28;20086;-71
2024/03/13 11:49:41;;;;;;;7.18;3.05;;;11.00;99.90;;;;;;4948480;28;20437;-70
2024/03/13 11:52:10;;;;;;;6.00;3.08;;;11.00;99.90;;;;;;4953784;28;20047;-70
2024/03/13 11:54:43;;;;;;;7.65;3.65;;;11.00;99.90;;;;;;4933585;29;20511;-70
2024/03/13 11:57:14;;;;;;;5.53;3.30;;;11.00;99.90;;;;;;4932362;29;20036;-70
2024/03/13 11:59:42;;;;;;;11.05;3.20;;;11.10;99.90;;;;;;4932128;29;20059;-70
2024/03/13 12:02:30;;;;;;;4.65;2.63;;;11.10;99.90;;;;;;4934453;29;20043;-70
2024/03/13 12:05:06;;;;;;;5.88;3.28;;;11.10;99.90;;;;;;4931756;29;20040;-70
2024/03/13 12:07:42;;;;;;;6.30;3.42;;;11.00;99.90;;;;;;4934284;29;20066;-70
2024/03/13 12:10:16;;;;;;;6.70;2.65;;;11.00;99.90;;;;;;4931842;29;20210;-70
2024/03/13 12:12:42;;;;;;;6.10;3.38;;;11.10;99.90;;;;;;4934177;29;20024;-70
2024/03/13 12:15:08;;;;;;;4.78;2.38;;;11.20;99.90;;;;;;4930612;29;20028;-70
2024/03/13 12:17:34;;;;;;;5.75;3.03;;;11.30;99.90;;;;;;4948406;28;20035;-70
2024/03/13 12:20:00;;;;;;;10.88;3.72;;;11.40;99.90;;;;;;4931545;29;20040;-70
2024/03/13 12:22:26;;;;;;;4.75;2.33;;;11.50;99.90;;;;;;4933807;29;20503;-70
2024/03/13 12:24:53;;;;;;;5.75;2.65;;;11.70;99.90;;;;;;4931313;29;20119;-70
2024/03/13 12:27:19;;;;;;;5.15;3.00;;;11.70;99.90;;;;;;4948499;28;20034;-68
2024/03/13 12:29:45;;;;;;;8.18;3.75;;;11.60;99.90;;;;;;4946424;28;20036;-69
2024/03/13 12:32:13;;;;;;;5.25;3.03;;;11.40;99.90;;;;;;4934089;29;20040;-70
2024/03/13 12:34:43;;;;;;;6.13;3.38;;;11.30;99.90;;;;;;4930935;29;20043;-70
2024/03/13 12:37:16;;;;;;;5.70;3.63;;;11.30;99.90;;;;;;4932560;29;20035;-70
2024/03/13 12:39:42;;;;;;;6.75;3.30;;;11.40;99.90;;;;;;4930747;29;20054;-70
2024/03/13 12:42:09;;;;;;;4.70;2.63;;;11.30;99.90;;;;;;4932518;29;20027;-70
2024/03/13 12:44:35;;;;;;;7.15;3.70;;;11.40;99.90;;;;;;4931406;29;20028;-70
2024/03/13 12:47:02;;;;;;;6.88;3.17;;;11.40;99.90;;;;;;4932650;29;20035;-70
2024/03/13 12:49:30;;;;;;;6.28;3.53;;;11.50;99.90;;;;;;4931911;29;20040;-72
2024/03/13 12:51:59;;;;;;;7.10;3.80;;;11.60;99.90;;;;;;4934843;29;20119;-72
2024/03/13 12:54:25;;;;;;;7.50;3.90;;;11.60;99.90;;;;;;4934295;29;20042;-74
2024/03/13 12:56:51;;;;;;;15.68;5.55;;;11.80;99.90;;;;;;4949115;28;20040;-69
2024/03/13 12:59:20;;;;;;;10.27;4.05;;;11.80;99.90;;;;;;4935341;29;20547;-71
2024/03/13 13:01:46;;;;;;;8.75;4.15;;;11.80;99.90;;;;;;4947036;28;20448;-69
2024/03/13 13:04:18;;;;;;;8.40;3.78;;;11.80;99.90;;;;;;4933868;29;20167;-70
2024/03/13 13:06:48;;;;;;;7.10;3.92;;;11.90;99.90;;;;;;4930956;29;20036;-71
2024/03/13 13:09:14;;;;;;;7.53;4.32;;;11.70;99.90;;;;;;4948188;28;20046;-71
2024/03/13 13:11:40;;;;;;;7.18;4.05;;;11.70;99.90;;;;;;4930813;29;20044;-71
2024/03/13 13:14:10;;;;;;;8.63;4.28;;;11.80;99.90;;;;;;4932368;29;20035;-71
2024/03/13 13:16:37;;;;;;;7.38;3.88;;;11.70;99.90;;;;;;4932269;29;20512;-71
2024/03/13 13:19:05;;;;;;;8.73;4.60;;;11.80;99.90;;;;;;4932235;29;20028;-69